x

Buoy A01 - Mass. Bay/stellwagen (44029) Wave Buoy

8:04 - Mon 20th Feb 2017 All times are EST. -5 hours from GMT.

  • Sig Wave height 3.6ft
  • Peak Period 5s
  • Wind
    13mph, 18mph gusts
  • Sea Temp 40°f
  • Ar Temp 40°f
  • Sea Pressure 1024.8mb
  • Buoy A01 - Mass. Bay/stellwagen
  • Buoy A01 - Mass. Bay/stellwagen

More Historic Weather Station data

Upgrade to MSW Pro to gain access to the past 30 days of data for over 8000 Wavebouys and Weather Stations around the globe.

Join Pro

Comparision Forecast

View Surf forecast
   
Seg 02/20 8:04 3.5ft 5s 13 18 mph 1024.8mb 40f 40f
7:04 3.5ft 5s 16 18 mph 1024.2mb 40f 41f
6:04 3ft 5s 11 13 mph 1023.5mb 40f 41f
5:04 2.5ft 5s 7 9 mph 1022mb 40f 40f
4:04 3.5ft 6s 11
mph
1021.3mb 40f 40f
3:04 3.5ft 5s 11 13 mph 1020.9mb 40f 39f
2:04 3.5ft 6s 11 13 mph 1020mb 40f 38f
1:04 4.5ft 6s 13 16 mph 1020mb 40f 38f
12:04 3.5ft 6s 16 18 mph 1020.1mb 40f 37f
11:04 4.5ft 6s 18 20 mph 1020.1mb 40f 37f
10:04 4.5ft 6s 18 20 mph 1019.7mb 40f 38f
9:04 2.5ft 5s 16 18 mph 1019.2mb 40f 39f
8:04 1.6ft 4s 13 16 mph 1018.4mb 40f 40f
7:04 1.3ft 8s 13 16 mph 1017.2mb 40f 40f
6:04 1.6ft 3s 13 18 mph 1015.6mb 40f 41f
5:04 1.3ft 3s 16 20 mph 1014.5mb 40f 42f
4:04 2.5ft 3s 16 20 mph 1013.6mb 40f 43f
3:04 2ft 3s 20 25 mph 1012.7mb 40f 44f
2:04 1.3ft 8s 13 16 mph 1012.3mb 40f 45f
1:04 1ft 6s 16 18 mph 1011.8mb 40f 46f
12:04 1ft 8s 9 11 mph 1011.5mb 40f 45f
Dom 02/19 11:04 1ft 8s 9 11 mph 1011mb 40f 45f
10:04 1ft 8s 7 9 mph 1010.5mb 40f 45f
9:04 1ft 9s 4
mph
1009.6mb 40f 45f
8:04 0.7ft  -  7
mph
1008.8mb 40f 48f
7:04 1ft 11s 4 7 mph 1008mb 40f 47f
6:04 1ft 3s 7 9 mph 1007.1mb 40f 48f
5:04 0.7ft  -  9 11 mph 1005.8mb 40f 49f
4:04 0.7ft  -  7
mph
1004.9mb 41f 48f
3:04 1ft 6s 7
mph
1004.2mb 40f 47f
2:04 1ft 7s 7 9 mph 1003.7mb 40f 46f
1:04 1ft 8s 11
mph
1003.3mb 40f 46f
12:04 1.3ft 3s 11
mph
1003.6mb 40f 45f
11:04 1.6ft 3s 13
mph
1004.4mb 40f 45f
10:04 2ft 3s 16
mph
1004.4mb 40f 45f
9:04 2.5ft 3s 13 16 mph 1003.9mb 40f 44f
8:04 2ft 3s 13 16 mph 1003.5mb 40f 44f
7:04 2.5ft 3s 16 18 mph 1002.9mb 40f 44f
6:04 2ft 3s 13 16 mph 1002.3mb 40f 44f
5:04 2ft 4s 16
mph
1001.5mb 40f 44f
4:04 2ft 4s 13 16 mph 1000.5mb 40f 44f
3:04 2.5ft 4s 11 13 mph 999.5mb 40f 44f
2:04 2.5ft 4s 13 16 mph 998.9mb 40f 44f
1:04 3.5ft 4s 13 16 mph 998.6mb 40f 45f
12:04 3ft 4s 18 20 mph 998.4mb 40f 46f
Sáb 02/18 11:04 3ft 5s 18 20 mph 998.6mb 40f 46f
10:04 4ft 4s 20 22 mph 998.4mb 40f 46f
9:04 4ft 3s 18 22 mph 998.6mb 40f 46f
8:04 3.5ft 4s 9 13 mph 999.1mb 40f 45f
7:04 2.5ft 5s 11 13 mph 999.2mb 40f 44f
6:04 2.5ft 3s 16 18 mph 999.3mb 40f 44f
5:04 2.5ft 5s 18 22 mph 999.3mb 40f 45f
4:04 2.5ft 4s 16 18 mph 999.6mb 40f 45f
3:04 2ft 4s 13 16 mph 1000.4mb 40f 44f
2:04 2.5ft 3s 16 18 mph 1001.7mb 40f 44f
1:04 2.5ft 3s 16 20 mph 1002.7mb 40f 43f
12:04 1.6ft 3s 16 18 mph 1004.1mb 40f 41f
11:04 1.3ft 3s 16 18 mph 1006mb 40f 38f
10:04 1.6ft 3s 9
mph
1006.7mb 40f 36f
9:04 2ft 3s 16 18 mph 1008.6mb 40f 34f
8:04 2ft 3s 13 16 mph 1008.1mb 40f 35f
7:04 2ft 3s 16 18 mph 1008mb 40f 35f
6:04 1.6ft 3s 13 16 mph 1007.8mb 40f 34f
5:04 3ft 4s 16 18 mph 1008.4mb 40f 34f
4:04 2.5ft 4s 13 16 mph 1008.5mb 40f 34f
3:04 2.5ft 3s 18 22 mph 1008.2mb 40f 34f
2:04 2ft 3s 18 20 mph 1008.2mb 40f 34f
1:04 3.5ft 3s 20 25 mph 1008mb 40f 35f
12:04 3ft 3s 20 25 mph 1007.4mb 40f 35f
Sex 02/17 11:04 2ft 3s 18 20 mph 1007.2mb 40f 35f
10:04 2.5ft 3s 20 25 mph 1006.8mb 40f 35f
9:04 3ft 3s 18 25 mph 1006.6mb 40f 36f
8:04 3ft 3s 20 25 mph 1006mb 40f 37f
7:04 2.5ft 4s 18 22 mph 1005.5mb 40f 38f
6:04  -   -  18 20 mph 1004.9mb 40f 38f
5:04 2.5ft 3s 16 18 mph 1003.8mb 40f 40f
4:04 2.5ft 3s 16 20 mph 1002.9mb 40f 40f
3:04 2.5ft 4s 18 22 mph 1002.5mb 40f 38f
2:04 3ft 4s 18 20 mph 1002.5mb 41f 37f
1:04 3.5ft 4s 18 22 mph 1002.7mb 41f 35f
12:04 3.5ft 4s 20 25 mph 1002.9mb 40f 33f
11:04 3ft 4s 22 25 mph 1003.2mb 40f 31f
10:04 3ft 4s 22 27 mph 1003.3mb 40f 29f
9:04 4ft 4s 22 29 mph 1003mb 40f 28f
8:04 4.5ft 4s 27 40 mph 1002.5mb 40f 28f
7:04 3.5ft 3s 25 31 mph 1002.2mb 40f 27f
6:04 4ft 4s 22 29 mph 1001.7mb 40f 28f
5:04 4ft 4s 25 31 mph 1001.1mb 40f 28f
4:04 4ft 4s 25 29 mph 1000.6mb 40f 28f